sensor_id;sensor_type;location;lat;lon;timestamp;pressure;altitude;pressure_sealevel;temperature;humidity
65151;BME280;51918;51.856;0.150;2023-03-23T00:00:41;98649.94;;;10.32;100.00
65151;BME280;51918;51.856;0.150;2023-03-23T00:05:42;98664.72;;;10.37;100.00
65151;BME280;51918;51.856;0.150;2023-03-23T00:10:42;98676.09;;;10.22;100.00
65151;BME280;51918;51.856;0.150;2023-03-23T00:15:44;98669.31;;;9.90;100.00
65151;BME280;51918;51.856;0.150;2023-03-23T00:20:44;98677.38;;;9.86;100.00
65151;BME280;51918;51.856;0.150;2023-03-23T00:25:47;98691.97;;;9.99;100.00
65151;BME280;51918;51.856;0.150;2023-03-23T00:30:49;98674.16;;;10.11;100.00
65151;BME280;51918;51.856;0.150;2023-03-23T00:35:49;98737.63;;;9.97;100.00
65151;BME280;51918;51.856;0.150;2023-03-23T00:40:50;98737.81;;;9.82;92.05
65151;BME280;51918;51.856;0.150;2023-03-23T00:45:52;98742.41;;;9.60;92.58
65151;BME280;51918;51.856;0.150;2023-03-23T00:50:53;98751.88;;;9.06;98.99
65151;BME280;51918;51.856;0.150;2023-03-23T00:55:53;98766.66;;;8.98;100.00
65151;BME280;51918;51.856;0.150;2023-03-23T01:00:55;98774.66;;;8.75;100.00
65151;BME280;51918;51.856;0.150;2023-03-23T01:05:56;98789.84;;;8.70;100.00
65151;BME280;51918;51.856;0.150;2023-03-23T01:11:02;98783.88;;;8.56;100.00
65151;BME280;51918;51.856;0.150;2023-03-23T01:16:05;98786.09;;;8.65;100.00
65151;BME280;51918;51.856;0.150;2023-03-23T01:21:08;98766.22;;;8.88;100.00
65151;BME280;51918;51.856;0.150;2023-03-23T01:26:10;98761.84;;;8.75;100.00
65151;BME280;51918;51.856;0.150;2023-03-23T01:31:15;98771.91;;;8.70;100.00
65151;BME280;51918;51.856;0.150;2023-03-23T01:36:18;98773.63;;;8.62;100.00
65151;BME280;51918;51.856;0.150;2023-03-23T01:41:20;98784.25;;;8.46;100.00
65151;BME280;51918;51.856;0.150;2023-03-23T01:46:22;98780.53;;;8.55;100.00
65151;BME280;51918;51.856;0.150;2023-03-23T01:51:23;98774.34;;;8.43;99.93
65151;BME280;51918;51.856;0.150;2023-03-23T01:56:28;98787.03;;;8.23;100.00
65151;BME280;51918;51.856;0.150;2023-03-23T02:01:30;98789.09;;;8.34;100.00
65151;BME280;51918;51.856;0.150;2023-03-23T02:06:31;98790.13;;;8.40;100.00
65151;BME280;51918;51.856;0.150;2023-03-23T02:11:32;98797.41;;;8.43;100.00
65151;BME280;51918;51.856;0.150;2023-03-23T02:16:40;98784.19;;;8.33;100.00
65151;BME280;51918;51.856;0.150;2023-03-23T02:22:15;98790.91;;;8.40;100.00
65151;BME280;51918;51.856;0.150;2023-03-23T02:38:32;98797.19;;;8.38;100.00
65151;BME280;51918;51.856;0.150;2023-03-23T02:43:39;98798.47;;;8.20;100.00
65151;BME280;51918;51.856;0.150;2023-03-23T02:48:41;98799.81;;;8.16;100.00
65151;BME280;51918;51.856;0.150;2023-03-23T02:53:47;98801.84;;;8.28;100.00
65151;BME280;51918;51.856;0.150;2023-03-23T02:58:49;98810.28;;;8.21;100.00
65151;BME280;51918;51.856;0.150;2023-03-23T03:03:50;98806.97;;;8.28;100.00
65151;BME280;51918;51.856;0.150;2023-03-23T03:08:55;98814.25;;;8.24;100.00
65151;BME280;51918;51.856;0.150;2023-03-23T03:14:03;98812.41;;;8.11;100.00
65151;BME280;51918;51.856;0.150;2023-03-23T03:19:08;98815.72;;;8.05;100.00
65151;BME280;51918;51.856;0.150;2023-03-23T03:24:15;98820.97;;;7.97;100.00
65151;BME280;51918;51.856;0.150;2023-03-23T03:29:20;98818.63;;;8.02;100.00
65151;BME280;51918;51.856;0.150;2023-03-23T03:34:22;98813.91;;;7.99;100.00
65151;BME280;51918;51.856;0.150;2023-03-23T03:39:25;98821.88;;;8.17;100.00
65151;BME280;51918;51.856;0.150;2023-03-23T03:44:26;98833.69;;;8.12;100.00
65151;BME280;51918;51.856;0.150;2023-03-23T03:49:27;98829.97;;;8.21;100.00
65151;BME280;51918;51.856;0.150;2023-03-23T03:54:29;98838.38;;;8.08;100.00
65151;BME280;51918;51.856;0.150;2023-03-23T03:59:29;98843.09;;;8.04;100.00
65151;BME280;51918;51.856;0.150;2023-03-23T04:04:30;98844.56;;;7.92;100.00
65151;BME280;51918;51.856;0.150;2023-03-23T04:09:32;98852.66;;;7.96;100.00
65151;BME280;51918;51.856;0.150;2023-03-23T04:14:32;98848.53;;;7.95;100.00
65151;BME280;51918;51.856;0.150;2023-03-23T04:19:33;98853.59;;;7.88;100.00
65151;BME280;51918;51.856;0.150;2023-03-23T04:24:35;98861.84;;;7.83;100.00
65151;BME280;51918;51.856;0.150;2023-03-23T04:29:36;98858.91;;;7.65;100.00
65151;BME280;51918;51.856;0.150;2023-03-23T04:34:36;98852.88;;;7.73;100.00
65151;BME280;51918;51.856;0.150;2023-03-23T04:39:38;98861.97;;;7.75;100.00
65151;BME280;51918;51.856;0.150;2023-03-23T04:44:39;98857.56;;;7.69;100.00
65151;BME280;51918;51.856;0.150;2023-03-23T04:49:40;98860.75;;;7.71;100.00
65151;BME280;51918;51.856;0.150;2023-03-23T04:54:42;98865.75;;;7.58;100.00
65151;BME280;51918;51.856;0.150;2023-03-23T04:59:42;98868.38;;;7.64;100.00
65151;BME280;51918;51.856;0.150;2023-03-23T05:04:43;98880.38;;;7.64;100.00
65151;BME280;51918;51.856;0.150;2023-03-23T05:09:48;98881.34;;;7.63;100.00
65151;BME280;51918;51.856;0.150;2023-03-23T05:14:49;98892.56;;;7.62;100.00
65151;BME280;51918;51.856;0.150;2023-03-23T05:19:49;98892.06;;;7.52;100.00
65151;BME280;51918;51.856;0.150;2023-03-23T05:24:52;98901.75;;;7.56;100.00
65151;BME280;51918;51.856;0.150;2023-03-23T05:29:52;98904.31;;;7.56;100.00
65151;BME280;51918;51.856;0.150;2023-03-23T05:34:52;98905.56;;;7.46;100.00
65151;BME280;51918;51.856;0.150;2023-03-23T05:39:54;98904.22;;;7.50;100.00
65151;BME280;51918;51.856;0.150;2023-03-23T05:44:55;98904.84;;;7.52;100.00
65151;BME280;51918;51.856;0.150;2023-03-23T05:49:56;98899.13;;;7.50;100.00
65151;BME280;51918;51.856;0.150;2023-03-23T05:54:58;98901.06;;;7.48;100.00
65151;BME280;51918;51.856;0.150;2023-03-23T05:59:58;98905.06;;;7.35;100.00
65151;BME280;51918;51.856;0.150;2023-03-23T06:04:59;98926.66;;;7.48;100.00
65151;BME280;51918;51.856;0.150;2023-03-23T06:10:01;98922.06;;;7.43;100.00
65151;BME280;51918;51.856;0.150;2023-03-23T06:15:02;98911.19;;;7.56;100.00
65151;BME280;51918;51.856;0.150;2023-03-23T06:20:04;98921.44;;;7.56;100.00
65151;BME280;51918;51.856;0.150;2023-03-23T06:25:08;98919.75;;;7.48;100.00
65151;BME280;51918;51.856;0.150;2023-03-23T06:30:10;98919.97;;;7.68;100.00
65151;BME280;51918;51.856;0.150;2023-03-23T06:35:10;98917.28;;;7.76;100.00
65151;BME280;51918;51.856;0.150;2023-03-23T06:40:13;98922.66;;;7.81;100.00
65151;BME280;51918;51.856;0.150;2023-03-23T06:45:14;98924.84;;;7.84;100.00
65151;BME280;51918;51.856;0.150;2023-03-23T06:50:14;98921.59;;;7.97;100.00
65151;BME280;51918;51.856;0.150;2023-03-23T06:55:17;98914.41;;;8.08;100.00
65151;BME280;51918;51.856;0.150;2023-03-23T07:00:18;98910.06;;;8.08;100.00
65151;BME280;51918;51.856;0.150;2023-03-23T07:05:18;98919.19;;;8.17;100.00
65151;BME280;51918;51.856;0.150;2023-03-23T07:10:21;98910.16;;;8.21;100.00
65151;BME280;51918;51.856;0.150;2023-03-23T07:15:21;98907.94;;;8.33;100.00
65151;BME280;51918;51.856;0.150;2023-03-23T07:20:22;98903.25;;;8.15;100.00
65151;BME280;51918;51.856;0.150;2023-03-23T07:25:24;98903.69;;;8.25;100.00
65151;BME280;51918;51.856;0.150;2023-03-23T07:30:25;98902.28;;;8.44;100.00
65151;BME280;51918;51.856;0.150;2023-03-23T07:35:26;98893.13;;;8.63;100.00
65151;BME280;51918;51.856;0.150;2023-03-23T07:40:28;98888.84;;;8.77;100.00
65151;BME280;51918;51.856;0.150;2023-03-23T07:45:30;98876.03;;;8.77;100.00
65151;BME280;51918;51.856;0.150;2023-03-23T07:50:30;98894.91;;;9.04;100.00
65151;BME280;51918;51.856;0.150;2023-03-23T07:55:32;98900.06;;;9.18;100.00
65151;BME280;51918;51.856;0.150;2023-03-23T08:00:33;98909.75;;;9.29;100.00
65151;BME280;51918;51.856;0.150;2023-03-23T08:05:34;98913.59;;;9.53;100.00
65151;BME280;51918;51.856;0.150;2023-03-23T08:10:36;98929.81;;;9.80;100.00
65151;BME280;51918;51.856;0.150;2023-03-23T08:15:37;98929.81;;;9.87;100.00
65151;BME280;51918;51.856;0.150;2023-03-23T08:20:37;98926.66;;;9.78;100.00
65151;BME280;51918;51.856;0.150;2023-03-23T08:25:39;98931.78;;;9.85;100.00
65151;BME280;51918;51.856;0.150;2023-03-23T08:30:41;98930.25;;;10.17;100.00
65151;BME280;51918;51.856;0.150;2023-03-23T08:35:42;98924.13;;;10.32;100.00
65151;BME280;51918;51.856;0.150;2023-03-23T08:40:44;98932.00;;;10.70;100.00
65151;BME280;51918;51.856;0.150;2023-03-23T08:45:45;98923.31;;;11.23;97.81
65151;BME280;51918;51.856;0.150;2023-03-23T08:50:45;98917.66;;;11.46;93.87
65151;BME280;51918;51.856;0.150;2023-03-23T08:55:48;98915.28;;;11.76;90.97
65151;BME280;51918;51.856;0.150;2023-03-23T09:00:48;98911.19;;;11.93;87.70
65151;BME280;51918;51.856;0.150;2023-03-23T09:05:49;98917.91;;;12.26;85.30
65151;BME280;51918;51.856;0.150;2023-03-23T09:10:51;98906.06;;;12.62;84.81
65151;BME280;51918;51.856;0.150;2023-03-23T09:15:53;98917.53;;;12.66;81.25
65151;BME280;51918;51.856;0.150;2023-03-23T09:20:54;98925.44;;;12.71;78.59
65151;BME280;51918;51.856;0.150;2023-03-23T09:25:56;98921.13;;;12.65;76.75
65151;BME280;51918;51.856;0.150;2023-03-23T09:30:57;98918.88;;;12.87;76.69
65151;BME280;51918;51.856;0.150;2023-03-23T09:36:01;98926.66;;;13.18;73.75
65151;BME280;51918;51.856;0.150;2023-03-23T09:41:13;98924.53;;;13.14;71.96
65151;BME280;51918;51.856;0.150;2023-03-23T09:46:26;98914.59;;;13.00;70.74
65151;BME280;51918;51.856;0.150;2023-03-23T09:51:42;98917.97;;;13.30;69.44
65151;BME280;51918;51.856;0.150;2023-03-23T09:56:45;98920.28;;;13.50;69.42
65151;BME280;51918;51.856;0.150;2023-03-23T10:01:48;98912.03;;;13.72;66.01
65151;BME280;51918;51.856;0.150;2023-03-23T10:06:49;98912.44;;;14.11;67.14
65151;BME280;51918;51.856;0.150;2023-03-23T10:11:59;98901.50;;;14.68;63.64
65151;BME280;51918;51.856;0.150;2023-03-23T10:17:10;98904.91;;;14.97;62.59
65151;BME280;51918;51.856;0.150;2023-03-23T10:22:17;98920.38;;;14.92;59.60
65151;BME280;51918;51.856;0.150;2023-03-23T10:27:26;98920.72;;;14.72;59.51
65151;BME280;51918;51.856;0.150;2023-03-23T10:32:41;98933.97;;;14.75;60.58
65151;BME280;51918;51.856;0.150;2023-03-23T10:37:47;98927.75;;;14.48;59.33
65151;BME280;51918;51.856;0.150;2023-03-23T10:42:52;98926.28;;;14.40;61.25
65151;BME280;51918;51.856;0.150;2023-03-23T10:47:57;98916.88;;;14.74;59.39
65151;BME280;51918;51.856;0.150;2023-03-23T10:53:00;98927.03;;;14.64;59.17
65151;BME280;51918;51.856;0.150;2023-03-23T10:58:06;98926.47;;;14.62;58.64
65151;BME280;51918;51.856;0.150;2023-03-23T11:03:25;98921.69;;;14.94;56.92
65151;BME280;51918;51.856;0.150;2023-03-23T11:08:28;98918.97;;;15.13;57.80
65151;BME280;51918;51.856;0.150;2023-03-23T11:13:32;98923.91;;;15.43;56.25
65151;BME280;51918;51.856;0.150;2023-03-23T11:18:37;98907.13;;;15.79;56.19
65151;BME280;51918;51.856;0.150;2023-03-23T11:23:42;98911.84;;;16.33;55.98
65151;BME280;51918;51.856;0.150;2023-03-23T11:28:47;98914.41;;;16.50;54.04
65151;BME280;51918;51.856;0.150;2023-03-23T11:33:53;98914.94;;;16.52;53.19
65151;BME280;51918;51.856;0.150;2023-03-23T11:38:54;98919.31;;;16.52;52.60
65151;BME280;51918;51.856;0.150;2023-03-23T11:43:56;98911.25;;;17.14;54.50
65151;BME280;51918;51.856;0.150;2023-03-23T11:48:59;98906.34;;;16.91;52.60
65151;BME280;51918;51.856;0.150;2023-03-23T11:54:07;98898.09;;;16.99;53.36
65151;BME280;51918;51.856;0.150;2023-03-23T11:59:13;98908.53;;;17.26;52.32
65151;BME280;51918;51.856;0.150;2023-03-23T12:04:33;98891.81;;;16.95;52.50
65151;BME280;51918;51.856;0.150;2023-03-23T12:09:42;98908.78;;;17.02;52.77
65151;BME280;51918;51.856;0.150;2023-03-23T12:14:50;98886.25;;;15.86;54.16
65151;BME280;51918;51.856;0.150;2023-03-23T12:20:00;98882.63;;;15.53;56.06
65151;BME280;51918;51.856;0.150;2023-03-23T12:25:20;98890.31;;;15.65;56.20
65151;BME280;51918;51.856;0.150;2023-03-23T12:30:31;98885.66;;;15.50;59.19
65151;BME280;51918;51.856;0.150;2023-03-23T12:35:39;98887.66;;;15.14;62.00
65151;BME280;51918;51.856;0.150;2023-03-23T12:40:50;98878.75;;;15.39;66.27
65151;BME280;51918;51.856;0.150;2023-03-23T12:46:17;98884.78;;;15.61;63.18
65151;BME280;51918;51.856;0.150;2023-03-23T12:51:23;98885.97;;;15.08;60.59
65151;BME280;51918;51.856;0.150;2023-03-23T12:56:30;98889.03;;;15.34;60.88
65151;BME280;51918;51.856;0.150;2023-03-23T13:01:37;98876.47;;;15.14;60.28
65151;BME280;51918;51.856;0.150;2023-03-23T13:06:41;98872.06;;;15.43;61.54
65151;BME280;51918;51.856;0.150;2023-03-23T13:11:42;98850.09;;;15.63;59.82
65151;BME280;51918;51.856;0.150;2023-03-23T13:16:52;98851.00;;;16.24;56.67
65151;BME280;51918;51.856;0.150;2023-03-23T13:22:02;98837.59;;;16.76;54.56
65151;BME280;51918;51.856;0.150;2023-03-23T13:27:05;98835.09;;;17.41;52.76
65151;BME280;51918;51.856;0.150;2023-03-23T13:32:12;98833.44;;;17.62;50.21
65151;BME280;51918;51.856;0.150;2023-03-23T13:37:23;98850.06;;;17.29;49.65
65151;BME280;51918;51.856;0.150;2023-03-23T13:42:25;98841.59;;;17.11;50.56
65151;BME280;51918;51.856;0.150;2023-03-23T13:47:35;98850.56;;;17.26;48.86
65151;BME280;51918;51.856;0.150;2023-03-23T13:52:46;98850.31;;;17.59;50.15
65151;BME280;51918;51.856;0.150;2023-03-23T13:57:52;98813.56;;;17.83;47.41
65151;BME280;51918;51.856;0.150;2023-03-23T14:03:00;98813.44;;;17.68;47.48
65151;BME280;51918;51.856;0.150;2023-03-23T14:08:05;98801.88;;;17.16;46.20
65151;BME280;51918;51.856;0.150;2023-03-23T14:13:15;98800.47;;;17.03;46.16
65151;BME280;51918;51.856;0.150;2023-03-23T14:18:19;98795.09;;;16.60;46.94
65151;BME280;51918;51.856;0.150;2023-03-23T14:23:22;98822.13;;;16.65;47.78
65151;BME280;51918;51.856;0.150;2023-03-23T14:28:23;98820.53;;;16.58;49.03
65151;BME280;51918;51.856;0.150;2023-03-23T14:33:26;98822.00;;;16.76;49.33
65151;BME280;51918;51.856;0.150;2023-03-23T14:38:27;98828.38;;;16.63;49.13
65151;BME280;51918;51.856;0.150;2023-03-23T14:43:28;98812.72;;;16.14;48.94
65151;BME280;51918;51.856;0.150;2023-03-23T14:48:31;98799.72;;;15.75;49.00
65151;BME280;51918;51.856;0.150;2023-03-23T14:53:35;98811.00;;;16.20;50.22
65151;BME280;51918;51.856;0.150;2023-03-23T14:58:36;98781.28;;;15.89;50.25
65151;BME280;51918;51.856;0.150;2023-03-23T15:03:40;98763.91;;;15.89;49.58
65151;BME280;51918;51.856;0.150;2023-03-23T15:08:43;98765.34;;;15.29;50.20
65151;BME280;51918;51.856;0.150;2023-03-23T15:13:46;98760.50;;;15.33;51.49
65151;BME280;51918;51.856;0.150;2023-03-23T15:18:51;98766.69;;;14.98;51.94
65151;BME280;51918;51.856;0.150;2023-03-23T15:23:54;98757.44;;;15.19;52.80
65151;BME280;51918;51.856;0.150;2023-03-23T15:29:04;98743.50;;;14.34;54.72
65151;BME280;51918;51.856;0.150;2023-03-23T15:34:15;98758.16;;;14.28;55.72
65151;BME280;51918;51.856;0.150;2023-03-23T15:39:16;98760.16;;;14.38;56.98
65151;BME280;51918;51.856;0.150;2023-03-23T15:44:27;98759.00;;;14.05;61.71
65151;BME280;51918;51.856;0.150;2023-03-23T15:49:29;98768.91;;;13.73;65.61
65151;BME280;51918;51.856;0.150;2023-03-23T15:54:30;98770.56;;;13.55;67.30
65151;BME280;51918;51.856;0.150;2023-03-23T15:59:31;98785.59;;;13.35;70.73
65151;BME280;51918;51.856;0.150;2023-03-23T16:04:33;98790.53;;;13.36;71.98
65151;BME280;51918;51.856;0.150;2023-03-23T16:09:34;98794.25;;;13.41;74.13
65151;BME280;51918;51.856;0.150;2023-03-23T16:14:34;98789.66;;;12.89;79.63
65151;BME280;51918;51.856;0.150;2023-03-23T16:19:36;98778.88;;;12.43;83.60
65151;BME280;51918;51.856;0.150;2023-03-23T16:24:37;98764.84;;;12.21;86.74
65151;BME280;51918;51.856;0.150;2023-03-23T16:29:37;98782.28;;;12.00;89.11
65151;BME280;51918;51.856;0.150;2023-03-23T16:34:39;98767.19;;;12.04;87.97
65151;BME280;51918;51.856;0.150;2023-03-23T16:39:40;98748.44;;;12.15;86.59
65151;BME280;51918;51.856;0.150;2023-03-23T16:44:41;98744.78;;;12.04;86.65
65151;BME280;51918;51.856;0.150;2023-03-23T16:49:43;98726.34;;;12.07;85.95
65151;BME280;51918;51.856;0.150;2023-03-23T16:54:43;98730.41;;;11.78;88.31
65151;BME280;51918;51.856;0.150;2023-03-23T16:59:44;98716.38;;;11.92;86.64
65151;BME280;51918;51.856;0.150;2023-03-23T17:04:46;98716.88;;;11.83;87.82
65151;BME280;51918;51.856;0.150;2023-03-23T17:09:47;98716.03;;;11.70;89.63
65151;BME280;51918;51.856;0.150;2023-03-23T17:14:47;98722.03;;;11.64;90.49
65151;BME280;51918;51.856;0.150;2023-03-23T17:19:50;98711.38;;;11.36;95.04
65151;BME280;51918;51.856;0.150;2023-03-23T17:24:50;98701.75;;;11.24;96.78
65151;BME280;51918;51.856;0.150;2023-03-23T17:29:51;98681.69;;;11.33;96.67
65151;BME280;51918;51.856;0.150;2023-03-23T17:34:53;98672.63;;;11.30;97.72
65151;BME280;51918;51.856;0.150;2023-03-23T17:39:54;98676.06;;;11.18;99.17
65151;BME280;51918;51.856;0.150;2023-03-23T17:44:55;98648.47;;;11.25;98.36
65151;BME280;51918;51.856;0.150;2023-03-23T17:49:57;98648.81;;;11.35;98.43
65151;BME280;51918;51.856;0.150;2023-03-23T17:54:58;98636.03;;;11.47;97.14
65151;BME280;51918;51.856;0.150;2023-03-23T17:59:58;98652.00;;;11.05;100.00
65151;BME280;51918;51.856;0.150;2023-03-23T18:05:01;98615.09;;;11.18;100.00
65151;BME280;51918;51.856;0.150;2023-03-23T18:10:02;98616.78;;;11.06;100.00
65151;BME280;51918;51.856;0.150;2023-03-23T18:15:04;98618.69;;;10.92;100.00
65151;BME280;51918;51.856;0.150;2023-03-23T18:20:07;98605.47;;;10.88;100.00
65151;BME280;51918;51.856;0.150;2023-03-23T18:25:08;98584.84;;;10.95;100.00
65151;BME280;51918;51.856;0.150;2023-03-23T18:30:12;98583.16;;;10.82;100.00
65151;BME280;51918;51.856;0.150;2023-03-23T18:35:14;98580.47;;;10.70;100.00
65151;BME280;51918;51.856;0.150;2023-03-23T18:40:15;98564.97;;;10.77;100.00
65151;BME280;51918;51.856;0.150;2023-03-23T18:45:16;98546.78;;;10.79;100.00
65151;BME280;51918;51.856;0.150;2023-03-23T18:50:18;98536.63;;;10.65;100.00
65151;BME280;51918;51.856;0.150;2023-03-23T18:55:19;98527.31;;;10.64;100.00
65151;BME280;51918;51.856;0.150;2023-03-23T19:00:21;98524.69;;;10.71;100.00
65151;BME280;51918;51.856;0.150;2023-03-23T19:05:23;98516.75;;;10.54;100.00
65151;BME280;51918;51.856;0.150;2023-03-23T19:10:24;98494.00;;;10.51;100.00
65151;BME280;51918;51.856;0.150;2023-03-23T19:15:24;98500.81;;;10.45;100.00
65151;BME280;51918;51.856;0.150;2023-03-23T19:20:26;98488.47;;;10.54;100.00
65151;BME280;51918;51.856;0.150;2023-03-23T19:25:27;98478.75;;;10.56;100.00
65151;BME280;51918;51.856;0.150;2023-03-23T19:30:28;98473.19;;;10.59;100.00
65151;BME280;51918;51.856;0.150;2023-03-23T19:35:31;98467.94;;;10.47;100.00
65151;BME280;51918;51.856;0.150;2023-03-23T19:40:32;98457.06;;;10.27;100.00
65151;BME280;51918;51.856;0.150;2023-03-23T19:45:32;98448.38;;;10.46;100.00
65151;BME280;51918;51.856;0.150;2023-03-23T19:50:34;98443.44;;;10.45;100.00
65151;BME280;51918;51.856;0.150;2023-03-23T19:55:35;98438.31;;;10.45;100.00
65151;BME280;51918;51.856;0.150;2023-03-23T20:00:36;98432.97;;;10.21;100.00
65151;BME280;51918;51.856;0.150;2023-03-23T20:05:38;98438.03;;;10.35;100.00
65151;BME280;51918;51.856;0.150;2023-03-23T20:10:39;98432.66;;;10.36;100.00
65151;BME280;51918;51.856;0.150;2023-03-23T20:15:39;98429.03;;;10.44;100.00
65151;BME280;51918;51.856;0.150;2023-03-23T20:20:41;98435.47;;;10.53;100.00
65151;BME280;51918;51.856;0.150;2023-03-23T20:25:42;98427.63;;;10.66;100.00
65151;BME280;51918;51.856;0.150;2023-03-23T20:30:43;98428.63;;;10.65;100.00
65151;BME280;51918;51.856;0.150;2023-03-23T20:35:45;98423.31;;;10.42;100.00
65151;BME280;51918;51.856;0.150;2023-03-23T20:40:45;98429.47;;;10.59;100.00
65151;BME280;51918;51.856;0.150;2023-03-23T20:45:46;98442.06;;;10.67;100.00
65151;BME280;51918;51.856;0.150;2023-03-23T20:50:48;98434.84;;;10.76;100.00
65151;BME280;51918;51.856;0.150;2023-03-23T20:55:49;98430.91;;;10.74;100.00
65151;BME280;51918;51.856;0.150;2023-03-23T21:00:51;98443.47;;;10.82;100.00
65151;BME280;51918;51.856;0.150;2023-03-23T21:05:53;98439.13;;;10.82;100.00
65151;BME280;51918;51.856;0.150;2023-03-23T21:10:55;98426.03;;;10.84;100.00
65151;BME280;51918;51.856;0.150;2023-03-23T21:15:56;98438.59;;;10.55;100.00
65151;BME280;51918;51.856;0.150;2023-03-23T21:20:58;98456.06;;;10.72;100.00
65151;BME280;51918;51.856;0.150;2023-03-23T21:26:00;98443.34;;;10.77;100.00
65151;BME280;51918;51.856;0.150;2023-03-23T21:31:03;98484.22;;;10.85;100.00
65151;BME280;51918;51.856;0.150;2023-03-23T21:36:06;98504.00;;;10.84;100.00
65151;BME280;51918;51.856;0.150;2023-03-23T21:41:08;98491.34;;;10.83;100.00
65151;BME280;51918;51.856;0.150;2023-03-23T21:46:10;98495.78;;;10.76;100.00
65151;BME280;51918;51.856;0.150;2023-03-23T21:51:14;98475.81;;;10.71;100.00
65151;BME280;51918;51.856;0.150;2023-03-23T21:56:14;98486.31;;;10.51;100.00
65151;BME280;51918;51.856;0.150;2023-03-23T22:01:16;98480.94;;;10.53;100.00
65151;BME280;51918;51.856;0.150;2023-03-23T22:06:19;98485.91;;;10.54;100.00
65151;BME280;51918;51.856;0.150;2023-03-23T22:11:22;98471.81;;;10.57;100.00
65151;BME280;51918;51.856;0.150;2023-03-23T22:16:23;98469.00;;;10.40;100.00
65151;BME280;51918;51.856;0.150;2023-03-23T22:21:26;98462.00;;;10.47;100.00
65151;BME280;51918;51.856;0.150;2023-03-23T22:26:28;98474.28;;;10.45;100.00
65151;BME280;51918;51.856;0.150;2023-03-23T22:31:31;98486.22;;;10.39;100.00
65151;BME280;51918;51.856;0.150;2023-03-23T22:36:33;98499.00;;;10.21;100.00
65151;BME280;51918;51.856;0.150;2023-03-23T22:41:36;98503.44;;;10.07;100.00
65151;BME280;51918;51.856;0.150;2023-03-23T22:46:37;98495.66;;;9.82;100.00
65151;BME280;51918;51.856;0.150;2023-03-23T22:51:39;98496.72;;;9.67;100.00
65151;BME280;51918;51.856;0.150;2023-03-23T22:56:40;98492.63;;;9.60;100.00
65151;BME280;51918;51.856;0.150;2023-03-23T23:01:41;98504.63;;;9.73;100.00
65151;BME280;51918;51.856;0.150;2023-03-23T23:06:43;98513.50;;;9.70;100.00
65151;BME280;51918;51.856;0.150;2023-03-23T23:11:43;98502.94;;;9.53;100.00
65151;BME280;51918;51.856;0.150;2023-03-23T23:16:44;98510.59;;;9.60;100.00
65151;BME280;51918;51.856;0.150;2023-03-23T23:21:46;98517.13;;;9.56;100.00
65151;BME280;51918;51.856;0.150;2023-03-23T23:26:47;98515.75;;;9.53;100.00
65151;BME280;51918;51.856;0.150;2023-03-23T23:31:47;98522.91;;;9.44;100.00
65151;BME280;51918;51.856;0.150;2023-03-23T23:36:50;98523.91;;;9.37;100.00
65151;BME280;51918;51.856;0.150;2023-03-23T23:41:56;98522.34;;;9.36;100.00
65151;BME280;51918;51.856;0.150;2023-03-23T23:46:56;98535.41;;;9.21;100.00
65151;BME280;51918;51.856;0.150;2023-03-23T23:51:59;98535.63;;;9.19;100.00
65151;BME280;51918;51.856;0.150;2023-03-23T23:57:00;98536.97;;;9.22;100.00
